Time;durP1;ratioP1;P1;durP2;ratioP2;P2;SDS_P1;SDS_P2;PMS_P1;PMS_P2;Temp;Humidity;BMP_temperature;BMP_pressure;BME280_temperature;BME280_humidity;BME280_pressure;Samples;Min_cycle;Max_cycle;Signal;HPM_P1;HPM_P2
2021/12/03 00:00:55;;;;;;;12.27;7.30;;;4.50;99.90;;;;;;4895379;29;20224;-34
2021/12/03 00:03:22;;;;;;;12.40;7.30;;;4.50;99.90;;;;;;4892497;29;20202;-37
2021/12/03 00:05:51;;;;;;;13.27;7.63;;;4.50;99.90;;;;;;4892752;29;20225;-36
2021/12/03 00:08:19;;;;;;;14.57;8.23;;;4.60;99.90;;;;;;4887228;29;20239;-34
2021/12/03 00:10:54;;;;;;;12.60;8.13;;;4.60;99.90;;;;;;4889528;29;20209;-35
2021/12/03 00:13:25;;;;;;;13.47;8.83;;;4.60;99.90;;;;;;4903653;29;20194;-36
2021/12/03 00:15:54;;;;;;;10.10;8.10;;;4.60;99.90;;;;;;4904415;29;20227;-36
2021/12/03 00:18:21;;;;;;;12.30;9.13;;;4.60;99.90;;;;;;4907070;29;20273;-36
2021/12/03 00:20:50;;;;;;;14.37;9.13;;;4.60;99.90;;;;;;4902732;29;20233;-36
2021/12/03 00:23:19;;;;;;;12.60;9.07;;;4.60;99.90;;;;;;4900339;29;20213;-35
2021/12/03 00:25:49;;;;;;;13.43;9.80;;;4.60;99.90;;;;;;4898038;29;20696;-35
2021/12/03 00:28:16;;;;;;;17.47;9.67;;;4.70;99.90;;;;;;4903955;29;20505;-36
2021/12/03 00:30:44;;;;;;;11.00;9.40;;;4.70;99.90;;;;;;4899954;29;20198;-36
2021/12/03 00:33:13;;;;;;;16.83;10.23;;;4.70;99.90;;;;;;4895679;29;20304;-37
2021/12/03 00:35:41;;;;;;;13.20;9.37;;;4.70;99.90;;;;;;4911218;29;20296;-35
2021/12/03 00:38:08;;;;;;;17.57;10.60;;;4.70;99.90;;;;;;4907858;29;20215;-36
2021/12/03 00:40:39;;;;;;;14.80;10.67;;;4.70;99.90;;;;;;4896043;29;20216;-35
2021/12/03 00:43:07;;;;;;;17.57;11.23;;;4.70;99.90;;;;;;4888143;29;20505;-36
2021/12/03 00:45:35;;;;;;;16.63;12.13;;;4.70;99.90;;;;;;4905604;29;20797;-36
2021/12/03 00:48:03;;;;;;;19.70;11.70;;;4.70;99.90;;;;;;4911107;29;20228;-35
2021/12/03 00:50:33;;;;;;;18.27;12.53;;;4.70;99.90;;;;;;4914452;29;20216;-35
2021/12/03 00:53:01;;;;;;;19.87;13.37;;;4.70;99.90;;;;;;4898168;29;20218;-36
2021/12/03 00:55:32;;;;;;;17.70;13.37;;;4.70;99.90;;;;;;4896595;29;20312;-33
2021/12/03 00:58:00;;;;;;;19.23;13.70;;;4.70;99.90;;;;;;4890611;29;20205;-36
2021/12/03 01:00:32;;;;;;;19.53;12.87;;;4.70;99.90;;;;;;4904005;29;20217;-36
2021/12/03 01:03:03;;;;;;;20.77;13.70;;;4.70;99.90;;;;;;4892363;29;20636;-36
2021/12/03 01:05:31;;;;;;;22.47;13.60;;;4.70;99.90;;;;;;4876623;29;20206;-35
2021/12/03 01:08:02;;;;;;;21.57;13.90;;;4.70;99.90;;;;;;4900932;29;20213;-35
2021/12/03 01:10:29;;;;;;;20.40;14.30;;;4.60;99.90;;;;;;4897152;29;20213;-36
2021/12/03 01:12:57;;;;;;;22.57;14.73;;;4.60;99.90;;;;;;4899146;29;20205;-35
2021/12/03 01:15:28;;;;;;;21.90;14.97;;;4.70;99.90;;;;;;4908767;29;20588;-37
2021/12/03 01:17:59;;;;;;;25.17;15.50;;;4.70;99.90;;;;;;4895235;29;20221;-35
2021/12/03 01:20:30;;;;;;;20.73;14.37;;;4.70;99.90;;;;;;4895782;29;20204;-36
2021/12/03 01:23:05;;;;;;;24.90;15.50;;;4.60;99.90;;;;;;4906079;29;20200;-36
2021/12/03 01:25:33;;;;;;;21.37;14.37;;;4.70;99.90;;;;;;4906011;29;20704;-37
2021/12/03 01:28:01;;;;;;;25.10;15.23;;;4.60;99.90;;;;;;4898587;29;20197;-36
2021/12/03 01:30:32;;;;;;;24.50;15.47;;;4.60;99.90;;;;;;4913574;29;20205;-35
2021/12/03 01:33:01;;;;;;;23.73;15.40;;;4.70;99.90;;;;;;4909308;29;20201;-36
2021/12/03 01:35:28;;;;;;;23.57;14.57;;;4.70;99.90;;;;;;4906379;29;20217;-37
2021/12/03 01:37:56;;;;;;;21.13;13.03;;;4.70;99.90;;;;;;4896641;29;20202;-35
2021/12/03 01:40:26;;;;;;;24.47;13.47;;;4.70;99.90;;;;;;4894425;29;20202;-35
2021/12/03 01:42:56;;;;;;;24.43;13.83;;;4.70;99.90;;;;;;4893992;29;20277;-35
2021/12/03 01:45:27;;;;;;;19.13;13.20;;;4.70;99.90;;;;;;4902294;29;20229;-36
2021/12/03 01:47:56;;;;;;;23.73;14.33;;;4.80;99.90;;;;;;4893957;29;20269;-36
2021/12/03 01:50:30;;;;;;;20.73;13.87;;;4.80;99.90;;;;;;4876077;29;20211;-36
2021/12/03 01:52:59;;;;;;;20.80;13.90;;;4.70;99.90;;;;;;4890654;29;20686;-36
2021/12/03 01:55:26;;;;;;;23.10;13.40;;;4.80;99.90;;;;;;4911510;29;20241;-36
2021/12/03 01:57:53;;;;;;;21.37;13.00;;;4.80;99.90;;;;;;4903657;29;20213;-35
2021/12/03 02:00:37;;;;;;;22.87;13.87;;;4.80;99.90;;;;;;4888024;29;20605;-35
2021/12/03 02:03:08;;;;;;;20.20;12.57;;;4.80;99.90;;;;;;4892103;29;20285;-35
2021/12/03 02:05:36;;;;;;;21.57;11.90;;;4.80;99.90;;;;;;4882913;29;20684;-34
2021/12/03 02:08:06;;;;;;;20.30;12.17;;;4.80;99.90;;;;;;4888916;29;20228;-35
2021/12/03 02:10:35;;;;;;;22.87;11.50;;;4.80;99.90;;;;;;4898499;29;20611;-35
2021/12/03 02:13:03;;;;;;;23.43;12.50;;;4.80;99.90;;;;;;4902619;29;20241;-36
2021/12/03 02:15:31;;;;;;;17.43;11.93;;;4.80;99.90;;;;;;4893664;29;20249;-33
2021/12/03 02:17:58;;;;;;;18.87;12.20;;;4.80;99.90;;;;;;4892229;29;20201;-33
2021/12/03 02:20:25;;;;;;;25.20;13.63;;;4.80;99.90;;;;;;4891295;29;20225;-34
2021/12/03 02:22:53;;;;;;;21.87;12.50;;;4.80;99.90;;;;;;4906190;29;20221;-35
2021/12/03 02:25:22;;;;;;;25.83;12.53;;;4.80;99.90;;;;;;4894934;29;20220;-37
2021/12/03 02:27:52;;;;;;;24.60;12.43;;;4.80;99.90;;;;;;4898429;29;20691;-35
2021/12/03 02:30:23;;;;;;;21.93;12.43;;;4.80;99.90;;;;;;4878284;29;20692;-34
2021/12/03 02:32:55;;;;;;;18.03;11.97;;;4.80;99.90;;;;;;4879397;29;20201;-34
2021/12/03 02:35:23;;;;;;;23.70;12.77;;;4.80;99.90;;;;;;4910206;29;20245;-35
2021/12/03 02:37:54;;;;;;;22.07;11.97;;;4.80;99.90;;;;;;4888889;29;20209;-36
2021/12/03 02:40:25;;;;;;;20.37;11.97;;;4.80;99.90;;;;;;4901592;29;20554;-35
2021/12/03 02:42:53;;;;;;;18.50;10.93;;;4.80;99.90;;;;;;4905524;29;20228;-36
2021/12/03 02:45:21;;;;;;;20.20;10.60;;;4.80;99.90;;;;;;4893429;29;20704;-36
2021/12/03 02:47:49;;;;;;;16.37;10.67;;;4.80;99.90;;;;;;4903102;29;20197;-37
2021/12/03 02:50:18;;;;;;;21.67;11.40;;;4.80;99.90;;;;;;4910734;29;20209;-35
2021/12/03 02:52:54;;;;;;;18.70;10.10;;;4.80;99.90;;;;;;4911964;29;20203;-35
2021/12/03 02:55:22;;;;;;;20.60;10.37;;;4.80;99.90;;;;;;4877251;29;20245;-34
2021/12/03 02:57:50;;;;;;;18.37;10.20;;;4.80;99.90;;;;;;4908093;29;20209;-35
2021/12/03 03:00:23;;;;;;;21.20;9.30;;;4.80;99.90;;;;;;4897231;29;21280;-36
2021/12/03 03:02:59;;;;;;;14.83;9.10;;;4.80;99.90;;;;;;4897015;29;20263;-34
2021/12/03 03:05:30;;;;;;;17.40;8.80;;;4.80;99.90;;;;;;4912422;29;20288;-36
2021/12/03 03:07:58;;;;;;;14.57;7.77;;;4.80;99.90;;;;;;4898789;29;20198;-35
2021/12/03 03:10:36;;;;;;;16.73;8.20;;;4.90;99.90;;;;;;4891292;29;20300;-36
2021/12/03 03:13:05;;;;;;;15.30;7.70;;;4.90;99.90;;;;;;4891472;29;20283;-35
2021/12/03 03:15:35;;;;;;;18.63;8.17;;;4.90;99.90;;;;;;4882872;29;20732;-36
2021/12/03 03:18:20;;;;;;;15.90;7.67;;;4.90;99.90;;;;;;4887256;29;20225;-36
2021/12/03 03:21:01;;;;;;;19.53;7.77;;;4.90;99.90;;;;;;4902988;29;20209;-37
2021/12/03 03:23:29;;;;;;;18.87;7.63;;;4.90;99.90;;;;;;4893227;29;20205;-36
2021/12/03 03:25:56;;;;;;;23.63;8.03;;;4.90;99.90;;;;;;4904994;29;20202;-36
2021/12/03 03:28:24;;;;;;;14.10;6.00;;;4.90;99.90;;;;;;4901193;29;20220;-36
2021/12/03 03:30:55;;;;;;;15.10;6.33;;;4.90;99.90;;;;;;4891785;29;20221;-36
2021/12/03 03:33:23;;;;;;;20.27;7.37;;;4.90;99.90;;;;;;4900944;29;20239;-36
2021/12/03 03:35:51;;;;;;;18.23;6.90;;;5.00;99.90;;;;;;4896476;29;20213;-36
2021/12/03 03:38:20;;;;;;;15.47;6.33;;;4.90;99.90;;;;;;4893952;29;20281;-36
2021/12/03 03:40:51;;;;;;;18.07;6.40;;;4.90;99.90;;;;;;4912229;29;20779;-29
2021/12/03 03:43:20;;;;;;;20.23;6.77;;;4.90;99.90;;;;;;4898946;29;20248;-31
2021/12/03 03:45:48;;;;;;;15.87;6.37;;;4.90;99.90;;;;;;4895533;29;20257;-31
2021/12/03 03:48:17;;;;;;;19.87;6.70;;;4.90;99.90;;;;;;4894208;29;20217;-29
2021/12/03 03:50:48;;;;;;;22.80;7.43;;;4.90;99.90;;;;;;4901226;29;20291;-31
2021/12/03 03:53:15;;;;;;;15.77;5.43;;;4.90;99.90;;;;;;4896900;29;20304;-30
2021/12/03 03:55:45;;;;;;;20.07;6.80;;;4.90;99.90;;;;;;4902953;29;20243;-31
2021/12/03 03:58:12;;;;;;;18.47;6.20;;;4.90;99.90;;;;;;4910533;29;20220;-29
2021/12/03 04:00:43;;;;;;;14.27;5.37;;;4.90;99.90;;;;;;4907710;29;20215;-31
2021/12/03 04:03:11;;;;;;;20.30;5.57;;;4.90;99.90;;;;;;4909794;29;20624;-34
2021/12/03 04:05:39;;;;;;;16.20;5.47;;;4.90;99.90;;;;;;4903208;29;20203;-37
2021/12/03 04:08:07;;;;;;;14.20;5.37;;;4.80;99.90;;;;;;4891970;29;20510;-36
2021/12/03 04:10:35;;;;;;;18.63;5.23;;;4.80;99.90;;;;;;4892658;29;20205;-36
2021/12/03 04:13:03;;;;;;;16.90;4.90;;;4.80;99.90;;;;;;4899898;29;20754;-36
2021/12/03 04:15:32;;;;;;;19.90;5.90;;;4.70;99.90;;;;;;4902453;29;20230;-35
2021/12/03 04:18:02;;;;;;;17.97;5.37;;;4.70;99.90;;;;;;4875881;29;20364;-36
2021/12/03 04:20:29;;;;;;;19.03;5.53;;;4.70;99.90;;;;;;4898726;29;20293;-35
2021/12/03 04:22:56;;;;;;;17.57;5.00;;;4.70;99.90;;;;;;4900022;29;20224;-35
2021/12/03 04:25:23;;;;;;;14.00;4.50;;;4.70;99.90;;;;;;4909044;29;20221;-36
2021/12/03 04:27:51;;;;;;;15.87;5.00;;;4.60;99.90;;;;;;4910567;29;20201;-35
2021/12/03 04:30:22;;;;;;;17.83;4.70;;;4.60;99.90;;;;;;4895975;29;20252;-37
2021/12/03 04:32:51;;;;;;;17.23;5.23;;;4.60;99.90;;;;;;4898669;29;20570;-34
2021/12/03 04:35:19;;;;;;;15.47;5.03;;;4.60;99.90;;;;;;4885560;29;20221;-36
2021/12/03 04:37:46;;;;;;;13.80;5.00;;;4.60;99.90;;;;;;4891718;29;20304;-35
2021/12/03 04:40:16;;;;;;;16.07;4.70;;;4.60;99.90;;;;;;4892406;29;20216;-34
2021/12/03 04:42:52;;;;;;;15.50;4.80;;;4.50;99.90;;;;;;4888679;29;20230;-36
2021/12/03 04:45:21;;;;;;;20.57;5.73;;;4.50;99.90;;;;;;4883376;29;20316;-35
2021/12/03 04:47:54;;;;;;;16.67;4.77;;;4.50;99.90;;;;;;4875198;29;20203;-36
2021/12/03 04:50:26;;;;;;;13.97;4.70;;;4.50;99.90;;;;;;4903239;29;20725;-36
2021/12/03 04:52:56;;;;;;;14.50;4.60;;;4.50;99.90;;;;;;4905317;29;20244;-36
2021/12/03 04:55:25;;;;;;;18.43;5.20;;;4.50;99.90;;;;;;4903218;29;20803;-36
2021/12/03 04:57:55;;;;;;;18.67;4.47;;;4.50;99.90;;;;;;4893047;29;20679;-37
2021/12/03 05:00:33;;;;;;;16.80;4.57;;;4.40;99.90;;;;;;4899997;29;20316;-36
2021/12/03 05:03:01;;;;;;;18.97;4.63;;;4.40;99.90;;;;;;4897568;29;20260;-35
2021/12/03 05:05:32;;;;;;;12.57;4.80;;;4.40;99.90;;;;;;4896037;29;20209;-36
2021/12/03 05:08:02;;;;;;;15.33;4.40;;;4.40;99.90;;;;;;4886543;29;20304;-35
2021/12/03 05:10:33;;;;;;;18.30;4.80;;;4.40;99.90;;;;;;4906025;29;20212;-40
2021/12/03 05:13:06;;;;;;;17.43;5.00;;;4.40;99.90;;;;;;4892116;29;20706;-35
2021/12/03 05:15:35;;;;;;;17.30;5.03;;;4.40;99.90;;;;;;4895265;29;20221;-36
2021/12/03 05:18:04;;;;;;;20.17;5.27;;;4.40;99.90;;;;;;4909868;29;20679;-34
2021/12/03 05:20:34;;;;;;;12.63;4.50;;;4.30;99.90;;;;;;4891229;29;20617;-36
2021/12/03 05:23:03;;;;;;;17.60;4.53;;;4.30;99.90;;;;;;4904492;29;20652;-37
2021/12/03 05:25:32;;;;;;;11.97;4.50;;;4.30;99.90;;;;;;4901718;29;20707;-36
2021/12/03 05:28:00;;;;;;;11.87;4.23;;;4.30;99.90;;;;;;4862196;29;20210;-37
2021/12/03 05:30:30;;;;;;;14.80;4.57;;;4.30;99.90;;;;;;4895224;29;20261;-37
2021/12/03 05:32:58;;;;;;;14.23;5.17;;;4.30;99.90;;;;;;4896254;29;20213;-34
2021/12/03 05:35:26;;;;;;;15.20;4.73;;;4.30;99.90;;;;;;4894898;29;20201;-35
2021/12/03 05:37:54;;;;;;;16.87;5.07;;;4.30;99.90;;;;;;4883963;29;20206;-35
2021/12/03 05:40:22;;;;;;;13.77;5.03;;;4.30;99.90;;;;;;4895368;29;20751;-35
2021/12/03 05:42:49;;;;;;;13.53;4.97;;;4.30;99.90;;;;;;4883207;29;20232;-37
2021/12/03 05:45:33;;;;;;;14.97;5.00;;;4.30;99.90;;;;;;4894963;29;20297;-37
2021/12/03 05:48:06;;;;;;;14.30;5.07;;;4.30;99.90;;;;;;4894800;29;20213;-36
2021/12/03 05:50:34;;;;;;;14.50;5.70;;;4.30;99.90;;;;;;4899570;29;20686;-36
2021/12/03 05:53:04;;;;;;;14.00;5.83;;;4.30;99.90;;;;;;4877801;29;20213;-35
2021/12/03 05:55:31;;;;;;;13.43;5.33;;;4.30;99.90;;;;;;4894579;29;20245;-35
2021/12/03 05:57:59;;;;;;;14.70;5.17;;;4.30;99.90;;;;;;4894419;29;20214;-35
2021/12/03 06:00:38;;;;;;;15.53;5.53;;;4.30;99.90;;;;;;4895057;29;20209;-37
2021/12/03 06:03:08;;;;;;;14.80;5.33;;;4.30;99.90;;;;;;4899753;29;20225;-35
2021/12/03 06:05:36;;;;;;;14.30;5.83;;;4.30;99.90;;;;;;4895633;29;20254;-37
2021/12/03 06:08:03;;;;;;;16.53;6.10;;;4.30;99.90;;;;;;4887992;29;20346;-35
2021/12/03 06:10:31;;;;;;;17.07;6.43;;;4.30;99.90;;;;;;4885085;29;20202;-36
2021/12/03 06:12:58;;;;;;;16.50;7.27;;;4.30;99.90;;;;;;4871975;29;20270;-37
2021/12/03 06:15:26;;;;;;;21.47;7.03;;;4.30;99.90;;;;;;4888282;29;20266;-36
2021/12/03 06:17:58;;;;;;;16.90;7.00;;;4.30;99.90;;;;;;4887769;29;20229;-36
2021/12/03 06:20:28;;;;;;;16.97;6.93;;;4.30;99.90;;;;;;4895531;29;20220;-35
2021/12/03 06:22:56;;;;;;;18.10;7.17;;;4.30;99.90;;;;;;4891349;29;20236;-36
2021/12/03 06:25:23;;;;;;;18.40;6.87;;;4.30;99.90;;;;;;4893969;29;20214;-35
2021/12/03 06:27:54;;;;;;;17.40;7.33;;;4.30;99.90;;;;;;4881572;29;20593;-36
2021/12/03 06:30:23;;;;;;;21.83;7.47;;;4.40;99.90;;;;;;4893217;29;20214;-37
2021/12/03 06:32:51;;;;;;;23.07;7.67;;;4.40;99.90;;;;;;4896826;29;20217;-36
2021/12/03 06:35:22;;;;;;;21.30;7.37;;;4.40;99.90;;;;;;4910357;29;20225;-35
2021/12/03 06:37:50;;;;;;;22.27;7.23;;;4.40;99.90;;;;;;4898030;29;20677;-37
2021/12/03 06:40:26;;;;;;;20.83;6.90;;;4.40;99.90;;;;;;4893772;29;20209;-36
2021/12/03 06:42:53;;;;;;;21.23;6.77;;;4.40;99.90;;;;;;4893057;29;20324;-36
2021/12/03 06:45:21;;;;;;;17.13;6.07;;;4.30;99.90;;;;;;4893291;29;20209;-36
2021/12/03 06:47:52;;;;;;;22.07;6.63;;;4.30;99.90;;;;;;4895385;29;20237;-34
2021/12/03 06:50:20;;;;;;;18.27;7.10;;;4.40;99.90;;;;;;4907416;29;20767;-36
2021/12/03 06:52:58;;;;;;;18.93;6.67;;;4.30;99.90;;;;;;4875268;29;20228;-37
2021/12/03 06:55:26;;;;;;;20.17;7.13;;;4.40;99.90;;;;;;4901448;29;20245;-36
2021/12/03 06:57:56;;;;;;;18.10;6.10;;;4.40;99.90;;;;;;4902753;29;20534;-36
2021/12/03 07:00:23;;;;;;;18.27;5.93;;;4.40;99.90;;;;;;4902082;29;20213;-35
2021/12/03 07:02:52;;;;;;;15.03;5.40;;;4.40;99.90;;;;;;4904319;29;20230;-37
2021/12/03 07:05:20;;;;;;;13.40;5.20;;;4.40;99.90;;;;;;4890781;29;20206;-36
2021/12/03 07:07:48;;;;;;;13.67;5.23;;;4.40;99.90;;;;;;4891760;29;20200;-35
2021/12/03 07:10:15;;;;;;;11.93;5.43;;;4.40;99.90;;;;;;4876049;29;20281;-35
2021/12/03 07:12:45;;;;;;;13.27;4.80;;;4.40;99.90;;;;;;4874369;29;20247;-35
2021/12/03 07:15:12;;;;;;;19.53;5.10;;;4.40;99.90;;;;;;4892858;29;20246;-36
2021/12/03 07:17:40;;;;;;;18.90;4.97;;;4.50;99.90;;;;;;4892253;29;20221;-35
2021/12/03 07:20:08;;;;;;;17.17;4.93;;;4.50;99.90;;;;;;4895577;29;20207;-36
2021/12/03 07:22:36;;;;;;;15.97;4.70;;;4.50;99.90;;;;;;4890025;29;20712;-35
2021/12/03 07:25:07;;;;;;;16.67;4.80;;;4.50;99.90;;;;;;4891511;29;20209;-36
2021/12/03 07:27:34;;;;;;;15.17;4.97;;;4.50;99.90;;;;;;4891997;29;20226;-35
2021/12/03 07:30:05;;;;;;;16.53;4.83;;;4.50;99.90;;;;;;4892348;29;20866;-36
2021/12/03 07:32:32;;;;;;;13.17;4.57;;;4.50;99.90;;;;;;4892608;29;20704;-29
2021/12/03 07:34:59;;;;;;;9.03;3.70;;;4.50;99.90;;;;;;4885951;29;20217;-36
2021/12/03 07:37:27;;;;;;;15.97;4.73;;;4.50;99.90;;;;;;4877981;29;20605;-37
2021/12/03 07:39:54;;;;;;;16.40;4.60;;;4.50;99.90;;;;;;4891726;29;20210;-36
2021/12/03 07:42:24;;;;;;;14.30;4.40;;;4.50;99.90;;;;;;4876555;29;20240;-36
2021/12/03 07:44:51;;;;;;;17.73;4.80;;;4.50;99.90;;;;;;4889933;29;20232;-37
2021/12/03 07:47:18;;;;;;;13.83;4.67;;;4.50;99.90;;;;;;4875065;29;20206;-37
2021/12/03 07:49:48;;;;;;;10.37;4.50;;;4.60;99.90;;;;;;4902531;29;20214;-37
2021/12/03 07:52:16;;;;;;;14.37;4.33;;;4.50;99.90;;;;;;4891522;29;20677;-37
2021/12/03 07:54:44;;;;;;;16.17;4.13;;;4.60;99.90;;;;;;4891745;29;20233;-35
2021/12/03 07:57:11;;;;;;;10.83;4.20;;;4.60;99.90;;;;;;4907877;29;20201;-34
2021/12/03 07:59:39;;;;;;;14.37;4.60;;;4.60;99.90;;;;;;4909925;29;20704;-36
2021/12/03 08:02:06;;;;;;;13.80;5.00;;;4.60;99.90;;;;;;4898088;29;20216;-36
2021/12/03 08:04:34;;;;;;;13.77;4.80;;;4.70;99.90;;;;;;4910182;29;20711;-35
2021/12/03 08:07:01;;;;;;;14.00;4.57;;;4.70;99.90;;;;;;4897412;29;20221;-36
2021/12/03 08:09:31;;;;;;;12.73;4.40;;;4.70;99.90;;;;;;4869161;29;20213;-36
2021/12/03 08:11:58;;;;;;;12.10;4.20;;;4.70;99.90;;;;;;4892557;29;20277;-35
2021/12/03 08:14:25;;;;;;;11.23;4.03;;;4.70;99.90;;;;;;4891623;29;20213;-36
2021/12/03 08:16:53;;;;;;;11.00;4.93;;;4.80;99.90;;;;;;4871028;29;20233;-36
2021/12/03 08:19:20;;;;;;;12.40;4.47;;;4.80;99.90;;;;;;4860692;29;20744;-37
2021/12/03 08:21:47;;;;;;;11.07;4.73;;;4.80;99.90;;;;;;4891447;29;20210;-36
2021/12/03 08:24:17;;;;;;;9.80;4.00;;;4.80;99.90;;;;;;4875315;29;20244;-36
2021/12/03 08:26:44;;;;;;;13.33;4.40;;;4.90;99.90;;;;;;4896873;29;20201;-35
2021/12/03 08:29:12;;;;;;;11.53;4.93;;;4.90;99.90;;;;;;4910265;29;20229;-35
2021/12/03 08:31:39;;;;;;;15.23;4.83;;;4.90;99.90;;;;;;4893615;29;20213;-35
2021/12/03 08:34:07;;;;;;;13.30;4.73;;;4.90;99.90;;;;;;4913141;29;20209;-35
2021/12/03 08:36:35;;;;;;;11.67;5.10;;;4.90;99.90;;;;;;4899567;29;20304;-35
2021/12/03 08:39:04;;;;;;;10.93;4.67;;;4.90;99.90;;;;;;4903047;29;20217;-36
2021/12/03 08:41:31;;;;;;;10.53;4.57;;;5.00;99.90;;;;;;4912772;29;20358;-36
2021/12/03 08:44:02;;;;;;;12.67;5.43;;;5.00;99.90;;;;;;4878119;29;20217;-36
2021/12/03 08:46:33;;;;;;;12.73;4.57;;;5.00;99.90;;;;;;4903465;29;20224;-36
2021/12/03 08:49:50;;;;;;;12.77;5.57;;;5.10;99.90;;;;;;4890811;29;20212;-36
2021/12/03 08:54:50;;;;;;;14.63;5.67;;;5.10;99.90;;;;;;4900750;29;20590;-36
2021/12/03 08:57:23;;;;;;;12.00;5.07;;;5.10;99.90;;;;;;4893208;29;20210;-34
2021/12/03 08:59:55;;;;;;;14.50;5.27;;;5.10;99.90;;;;;;4898709;29;20209;-36
2021/12/03 09:02:23;;;;;;;15.07;5.70;;;5.20;99.90;;;;;;4899895;29;20595;-36
2021/12/03 09:04:51;;;;;;;15.40;6.20;;;5.20;99.90;;;;;;4895532;29;20257;-37
2021/12/03 09:07:21;;;;;;;10.70;5.00;;;5.20;99.90;;;;;;4906952;29;20296;-36
2021/12/03 09:09:49;;;;;;;18.17;6.23;;;5.30;99.90;;;;;;4912022;29;20221;-36
2021/12/03 09:12:16;;;;;;;15.90;5.97;;;5.30;99.90;;;;;;4894243;29;20216;-34
2021/12/03 09:14:50;;;;;;;13.60;5.57;;;5.30;99.90;;;;;;4895108;29;20785;-37
2021/12/03 09:20:05;;;;;;;15.70;5.50;;;5.40;99.90;;;;;;4895118;29;20225;-35
2021/12/03 09:25:11;;;;;;;12.27;5.20;;;5.50;99.90;;;;;;4894636;29;20208;-37
2021/12/03 09:27:39;;;;;;;13.87;5.83;;;5.50;99.90;;;;;;4894262;29;20221;-37
2021/12/03 09:30:10;;;;;;;14.47;5.63;;;5.60;99.90;;;;;;4878355;29;20205;-35
2021/12/03 09:32:37;;;;;;;14.37;6.40;;;5.60;99.90;;;;;;4894350;29;20210;-36
2021/12/03 09:35:05;;;;;;;13.83;5.70;;;5.60;99.90;;;;;;4878060;29;20220;-40
2021/12/03 09:37:33;;;;;;;15.67;5.67;;;5.70;99.90;;;;;;4877267;29;20237;-35
2021/12/03 09:40:05;;;;;;;17.03;5.80;;;5.70;99.90;;;;;;4894543;29;20298;-36
2021/12/03 09:42:38;;;;;;;14.47;6.37;;;5.80;99.90;;;;;;4893806;29;20663;-35
2021/12/03 09:45:08;;;;;;;10.27;5.83;;;5.80;99.90;;;;;;4894740;29;20229;-36
2021/12/03 09:47:35;;;;;;;10.27;6.00;;;5.80;99.90;;;;;;4882678;29;20198;-38
2021/12/03 09:50:06;;;;;;;11.70;5.40;;;5.80;99.90;;;;;;4900207;29;20236;-36
2021/12/03 09:55:23;;;;;;;13.03;6.00;;;5.90;99.90;;;;;;4900769;29;20316;-36
2021/12/03 09:58:06;;;;;;;13.33;6.00;;;6.00;99.90;;;;;;4896965;29;20647;-35
2021/12/03 10:20:18;;;;;;;10.00;5.07;;;6.20;99.90;;;;;;4874410;29;20228;-34
2021/12/03 10:34:22;;;;;;;12.07;4.50;;;6.30;99.90;;;;;;4893246;29;20206;-36
2021/12/03 10:47:25;;;;;;;11.80;4.53;;;6.40;99.90;;;;;;4874787;29;20381;-36
2021/12/03 10:50:03;;;;;;;12.10;4.67;;;6.50;99.90;;;;;;4892487;29;20205;-36
2021/12/03 10:58:42;;;;;;;12.17;4.40;;;6.50;99.90;;;;;;4883287;29;20209;-36
2021/12/03 11:51:53;;;;;;;12.53;3.40;;;6.90;99.90;;;;;;4881858;29;20562;-28
2021/12/03 12:29:32;;;;;;;6.30;2.70;;;7.40;99.90;;;;;;4897651;29;20308;-26
2021/12/03 13:00:57;;;;;;;4.07;2.00;;;7.20;99.90;;;;;;4895898;29;20237;-27
2021/12/03 13:04:28;;;;;;;4.20;2.07;;;7.30;99.90;;;;;;4888823;29;20629;-27
2021/12/03 14:38:16;;;;;;;2.70;1.43;;;7.10;99.90;;;;;;4893005;29;20220;-27
2021/12/03 14:46:04;;;;;;;2.07;1.30;;;7.20;99.90;;;;;;4876284;29;20268;-27
2021/12/03 14:51:46;;;;;;;4.07;1.53;;;7.20;99.90;;;;;;5048843;28;20552;-27
2021/12/03 14:57:15;;;;;;;11.03;2.50;;;7.10;99.90;;;;;;5043063;28;20277;-27
2021/12/03 15:08:05;;;;;;;5.43;1.37;;;7.10;99.90;;;;;;5043962;28;20283;-25
2021/12/03 16:04:26;;;;;;;1.53;0.90;;;7.10;99.90;;;;;;4999004;28;20228;-23
2021/12/03 16:07:07;;;;;;;1.13;0.80;;;7.10;99.90;;;;;;5010317;28;20279;-23
2021/12/03 16:24:59;;;;;;;1.27;0.80;;;7.10;99.90;;;;;;5035675;28;20217;-23
2021/12/03 16:44:21;;;;;;;0.90;0.73;;;7.00;99.90;;;;;;5028843;28;20316;-23
2021/12/03 16:47:17;;;;;;;1.43;0.77;;;7.00;99.90;;;;;;5031084;28;20201;-23
2021/12/03 16:52:37;;;;;;;1.67;0.80;;;7.00;99.90;;;;;;5030023;28;20206;-23
2021/12/03 16:55:14;;;;;;;1.93;1.00;;;6.90;99.90;;;;;;5029460;28;20283;-23
2021/12/03 16:57:42;;;;;;;1.30;1.17;;;6.90;99.90;;;;;;5040386;28;20200;-23
2021/12/03 17:00:37;;;;;;;1.53;0.83;;;6.90;99.90;;;;;;5029443;28;20258;-23
2021/12/03 17:03:30;;;;;;;3.03;1.77;;;6.90;99.90;;;;;;5031852;28;20211;-23
2021/12/03 17:11:47;;;;;;;1.97;1.50;;;6.90;99.90;;;;;;5026790;28;20370;-23
2021/12/03 17:57:19;;;;;;;1.67;1.57;;;6.90;99.90;;;;;;5025577;28;20209;-23
2021/12/03 17:59:49;;;;;;;2.23;1.30;;;6.90;99.90;;;;;;5029132;28;20199;-24
2021/12/03 18:07:27;;;;;;;1.10;1.00;;;7.00;99.90;;;;;;5024188;28;20324;-23
2021/12/03 18:10:19;;;;;;;1.63;1.00;;;7.00;99.90;;;;;;5022367;28;20204;-23
2021/12/03 18:46:24;;;;;;;1.43;1.00;;;7.00;99.90;;;;;;5044481;28;20220;-25
2021/12/03 18:57:22;;;;;;;1.37;1.27;;;7.10;99.90;;;;;;5026348;28;20204;-25
2021/12/03 19:00:10;;;;;;;1.47;1.00;;;7.10;99.90;;;;;;5033474;28;20569;-25
2021/12/03 19:02:39;;;;;;;1.33;0.90;;;7.10;99.90;;;;;;5007552;28;20312;-25
2021/12/03 19:05:30;;;;;;;1.07;0.90;;;7.10;99.90;;;;;;5025240;28;20203;-26
2021/12/03 19:10:31;;;;;;;1.20;1.10;;;7.10;99.90;;;;;;5019033;28;20633;-25
2021/12/03 19:13:03;;;;;;;1.63;1.23;;;7.10;99.90;;;;;;5045031;28;20196;-26
2021/12/03 19:15:31;;;;;;;1.70;1.10;;;7.10;99.90;;;;;;5040228;28;20211;-25
2021/12/03 19:18:01;;;;;;;1.00;0.90;;;7.10;99.90;;;;;;5023916;28;20227;-25
2021/12/03 19:20:50;;;;;;;1.93;1.40;;;7.20;99.90;;;;;;5021871;28;20321;-25
2021/12/03 19:23:20;;;;;;;2.90;1.33;;;7.10;99.90;;;;;;5026719;28;20213;-25
2021/12/03 19:25:51;;;;;;;2.17;1.30;;;7.10;99.90;;;;;;5015944;28;20237;-25
2021/12/03 19:28:21;;;;;;;2.23;1.17;;;7.10;99.90;;;;;;5006853;28;20252;-25
2021/12/03 19:30:49;;;;;;;2.10;1.17;;;7.10;99.90;;;;;;5037985;28;20221;-25
2021/12/03 19:33:17;;;;;;;1.43;1.20;;;7.20;99.90;;;;;;5010799;28;20300;-25
2021/12/03 19:35:44;;;;;;;1.20;1.10;;;7.20;99.90;;;;;;5023767;28;20321;-25
2021/12/03 19:38:14;;;;;;;1.90;1.20;;;7.20;99.90;;;;;;5011322;28;20676;-25
2021/12/03 19:40:50;;;;;;;2.03;1.20;;;7.20;99.90;;;;;;5031194;28;20577;-25
2021/12/03 19:43:19;;;;;;;1.47;1.00;;;7.20;99.90;;;;;;5026271;28;20208;-26
2021/12/03 19:45:54;;;;;;;2.50;1.10;;;7.20;99.90;;;;;;5024595;28;20295;-26
2021/12/03 19:48:21;;;;;;;1.33;1.20;;;7.20;99.90;;;;;;5027341;28;20624;-25
2021/12/03 19:50:55;;;;;;;2.60;1.40;;;7.20;99.90;;;;;;5028656;28;20248;-25
2021/12/03 19:53:28;;;;;;;2.67;1.73;;;7.20;99.90;;;;;;5029717;28;20718;-25
2021/12/03 19:55:55;;;;;;;1.73;1.50;;;7.20;99.90;;;;;;5025842;28;20530;-26
2021/12/03 19:58:23;;;;;;;1.67;1.20;;;7.20;99.90;;;;;;5021913;28;20662;-26
2021/12/03 20:00:50;;;;;;;1.90;1.37;;;7.20;99.90;;;;;;5027335;28;20300;-25
2021/12/03 20:03:18;;;;;;;1.90;1.50;;;7.20;99.90;;;;;;5028989;28;20249;-25
2021/12/03 20:05:45;;;;;;;1.80;1.40;;;7.20;99.90;;;;;;5034300;28;20205;-26
2021/12/03 20:08:13;;;;;;;2.60;1.30;;;7.20;99.90;;;;;;5029755;28;20300;-25
2021/12/03 20:10:42;;;;;;;1.80;1.70;;;7.20;99.90;;;;;;5030310;28;20299;-25
2021/12/03 20:13:24;;;;;;;1.60;1.50;;;7.20;99.90;;;;;;5024194;28;20266;-25
2021/12/03 20:16:12;;;;;;;2.07;1.70;;;7.20;99.90;;;;;;5021799;28;20197;-26
2021/12/03 20:18:43;;;;;;;2.00;1.50;;;7.30;99.90;;;;;;5028282;28;20205;-25
2021/12/03 20:21:12;;;;;;;1.60;1.30;;;7.30;99.90;;;;;;5024694;28;20216;-24
2021/12/03 20:26:39;;;;;;;1.90;1.30;;;7.30;99.90;;;;;;5010384;28;20290;-23
2021/12/03 20:31:44;;;;;;;1.70;1.33;;;7.30;99.90;;;;;;5019315;28;20723;-24
2021/12/03 20:34:59;;;;;;;1.70;1.50;;;7.20;99.90;;;;;;4999129;28;20571;-24
2021/12/03 20:37:11;;;;;;;1.47;1.30;;;7.30;99.90;;;;;;5006574;28;20210;-24
2021/12/03 20:39:41;;;;;;;1.50;1.33;;;7.30;99.90;;;;;;5011160;28;20209;-23
2021/12/03 21:09:39;;;;;;;2.13;1.60;;;7.30;99.90;;;;;;5009814;28;20209;-23
2021/12/03 21:12:16;;;;;;;2.83;1.70;;;7.30;99.90;;;;;;5023499;28;20236;-24
2021/12/03 21:20:28;;;;;;;3.60;1.93;;;7.30;99.90;;;;;;5029209;28;20761;-23
2021/12/03 21:23:05;;;;;;;3.60;2.33;;;7.30;99.90;;;;;;5028389;28;20221;-24
2021/12/03 21:25:35;;;;;;;3.93;2.13;;;7.30;99.90;;;;;;5022477;28;20201;-23
2021/12/03 21:30:58;;;;;;;2.10;1.63;;;7.30;99.90;;;;;;5009060;28;20193;-25
2021/12/03 21:41:27;;;;;;;2.77;1.70;;;7.30;99.90;;;;;;5028226;28;20227;-25
2021/12/03 21:44:01;;;;;;;2.30;1.60;;;7.30;99.90;;;;;;5009906;28;20220;-25
2021/12/03 21:46:32;;;;;;;1.60;1.47;;;7.30;99.90;;;;;;5008910;28;20221;-25